Time;durP1;ratioP1;P1;durP2;ratioP2;P2;SDS_P1;SDS_P2;PMS_P1;PMS_P2;Temp;Humidity;BMP_temperature;BMP_pressure;BME280_temperature;BME280_humidity;BME280_pressure;Samples;Min_cycle;Max_cycle;Signal;HPM_P1;HPM_P2
2021/11/10 00:02:18;;;;;;;;;;;;;;;;;;;;;
2021/11/10 00:05:18;;;;;;;;;;;;;;;6.18;75.16;93703.19;5009228;28;20040;-92
2021/11/10 00:08:04;;;;;;;5.75;2.90;;;;;;;6.15;73.19;93692.47;5006534;28;19913;-91
2021/11/10 00:11:25;;;;;;;5.93;3.13;;;;;;;6.21;71.91;93688.94;4999665;28;20042;-91
2021/11/10 00:14:05;;;;;;;5.47;3.33;;;;;;;6.31;72.31;93690.97;4977863;28;20090;-91
2021/11/10 00:17:24;;;;;;;4.90;3.00;;;;;;;6.22;71.88;93672.34;4986597;28;20060;-90
2021/11/10 00:20:21;;;;;;;;;;;;;;;;;;;;;
2021/11/10 00:23:18;;;;;;;;;;;;;;;;;;;;;
2021/11/10 00:26:07;;;;;;;;;;;;;;;;;;;;;
2021/11/10 00:28:52;;;;;;;6.03;3.15;;;;;;;6.24;70.52;93683.31;4972504;28;20361;-92
2021/11/10 00:31:38;;;;;;;;;;;;;;;;;;;;;
2021/11/10 00:34:38;;;;;;;6.32;2.40;;;;;;;6.31;71.35;93670.97;5007047;28;20115;-92
2021/11/10 00:37:24;;;;;;;;;;;;;;;;;;;;;
2021/11/10 00:40:06;;;;;;;6.25;2.45;;;;;;;6.31;71.89;93662.38;4997151;28;20034;-90
2021/11/10 00:43:09;;;;;;;4.13;2.30;;;;;;;6.31;72.68;93657.16;4976272;28;20046;-90
2021/11/10 00:45:58;;;;;;;;;;;;;;;;;;;;;
2021/11/10 00:48:46;;;;;;;4.68;2.33;;;;;;;6.24;72.50;93646.91;4981635;28;20057;-92
2021/11/10 00:51:29;;;;;;;4.18;2.10;;;;;;;6.31;72.69;93662.38;4982205;28;20042;-91
2021/11/10 00:54:08;;;;;;;;;;;;;;;;;;;;;
2021/11/10 00:57:22;;;;;;;;;;;;;;;;;;;;;
2021/11/10 01:03:32;;;;;;;3.80;2.22;;;;;;;6.17;71.24;93609.81;5007166;28;20495;-92
2021/11/10 01:06:25;;;;;;;4.32;2.22;;;;;;;6.17;71.45;93591.63;4995402;28;20064;-92
2021/11/10 01:09:17;;;;;;;;;;;;;;;6.28;71.75;93606.38;4983177;28;20040;-91
2021/11/10 01:12:20;;;;;;;;;;;;;;;;;;;;;
2021/11/10 01:15:39;;;;;;;;;;;;;;;;;;;;;
2021/11/10 01:18:38;;;;;;;5.63;1.80;;;;;;;6.21;69.07;93596.16;5009302;28;20042;-93
2021/11/10 01:21:41;;;;;;;6.55;2.22;;;;;;;6.23;69.71;93606.31;4992988;28;20038;-92
2021/11/10 01:24:33;;;;;;;;;;;;;;;;;;;;;
2021/11/10 01:27:38;;;;;;;3.38;1.90;;;;;;;6.16;70.47;93587.44;5007962;28;20263;-91
2021/11/10 01:30:24;;;;;;;4.80;2.40;;;;;;;6.13;70.82;93593.13;5010698;28;20104;-91
2021/11/10 01:33:23;;;;;;;;;;;;;;;6.23;70.91;93611.50;5009169;28;20053;-91
2021/11/10 01:36:04;;;;;;;4.47;2.03;;;;;;;6.13;70.32;93587.94;4992231;28;20004;-91
2021/11/10 01:39:17;;;;;;;;;;;;;;;;;;;;;
2021/11/10 01:42:01;;;;;;;3.50;2.17;;;;;;;6.17;69.98;93570.81;5013364;28;20046;-92
2021/11/10 01:48:14;;;;;;;4.45;2.17;;;;;;;6.21;71.12;93577.94;5009356;28;20143;-91
2021/11/10 01:50:57;;;;;;;5.97;2.35;;;;;;;6.30;72.32;93593.16;4948764;28;20524;-91
2021/11/10 01:54:20;;;;;;;;;;;;;;;;;;;;;
2021/11/10 01:57:38;;;;;;;3.17;2.00;;;;;;;6.30;72.92;93567.94;5011792;28;20048;-91
2021/11/10 02:01:01;;;;;;;;;;;;;;;;;;;;;
2021/11/10 02:03:51;;;;;;;;;;;;;;;;;;;;;
2021/11/10 02:06:54;;;;;;;;;;;;;;;;;;;;;
2021/11/10 02:09:52;;;;;;;;;;;;;;;;;;;;;
2021/11/10 02:12:54;;;;;;;3.40;1.60;;;;;;;6.27;69.39;93536.44;4975739;28;20042;-93
2021/11/10 02:15:40;;;;;;;2.33;1.50;;;;;;;6.37;67.26;93542.59;4968521;28;20125;-92
2021/11/10 02:18:36;;;;;;;3.92;1.90;;;;;;;6.53;70.38;93555.84;4977033;28;20038;-92
2021/11/10 02:21:52;;;;;;;;;;;;;;;;;;;;;
2021/11/10 02:24:45;;;;;;;5.30;2.22;;;;;;;6.29;71.74;93550.00;4961621;28;20092;-92
2021/11/10 02:27:37;;;;;;;;;;;;;;;;;;;;;
2021/11/10 02:30:23;;;;;;;3.95;2.33;;;;;;;6.20;72.75;93536.56;4990267;28;20146;-92
2021/11/10 02:33:14;;;;;;;3.85;2.08;;;;;;;6.17;72.94;93537.03;4976005;28;20113;-92
2021/11/10 02:35:53;;;;;;;4.00;2.28;;;;;;;6.21;72.83;93538.13;4958681;28;20093;-92
2021/11/10 02:39:07;;;;;;;5.03;1.98;;;;;;;6.16;72.36;93523.22;4952213;28;20253;-91
2021/11/10 02:41:52;;;;;;;;;;;;;;;;;;;;;
2021/11/10 02:44:31;;;;;;;3.95;2.10;;;;;;;6.22;71.18;93531.94;4981611;28;20041;-92
2021/11/10 02:47:09;;;;;;;4.88;2.00;;;;;;;6.56;69.58;93535.38;4991173;28;20514;-91
2021/11/10 02:50:09;;;;;;;4.30;2.40;;;;;;;6.44;70.27;93537.25;4976488;28;20046;-91
2021/11/10 02:52:53;;;;;;;5.40;2.85;;;;;;;6.42;70.65;93549.69;4976989;28;20051;-92
2021/11/10 02:55:54;;;;;;;;;;;;;;;;;;;;;
2021/11/10 02:59:12;;;;;;;4.82;2.20;;;;;;;6.24;71.51;93542.88;4986156;28;20518;-91
2021/11/10 03:01:54;;;;;;;;;;;;;;;;;;;;;
2021/11/10 03:05:26;;;;;;;;;;;;;;;;;;;;;
2021/11/10 03:08:23;;;;;;;4.28;2.40;;;;;;;6.18;71.90;93541.22;5028274;28;20034;-91
2021/11/10 03:11:28;;;;;;;4.35;2.28;;;;;;;6.20;71.45;93546.97;5020913;28;20486;-93
2021/11/10 03:14:42;;;;;;;4.60;2.30;;;;;;;6.17;71.21;93544.81;4998054;28;20649;-91
2021/11/10 03:17:35;;;;;;;4.32;2.05;;;;;;;6.18;71.96;93541.22;5030677;28;20041;-92
2021/11/10 03:20:34;;;;;;;;;;;;;;;;;;;;;
2021/11/10 03:23:37;;;;;;;;;;;;;;;;;;;;;
2021/11/10 03:26:22;;;;;;;;;;;;;;;;;;;;;
2021/11/10 03:29:07;;;;;;;;;;;;;;;;;;;;;
2021/11/10 03:32:07;;;;;;;6.93;2.58;;;;;;;6.15;74.56;93570.28;5013007;28;20041;-91
2021/11/10 03:34:52;;;;;;;3.65;2.00;;;;;;;6.03;75.35;93573.72;5016701;28;20042;-91
2021/11/10 03:37:51;;;;;;;7.30;2.53;;;;;;;6.00;74.90;93578.56;5017186;28;20394;-92
2021/11/10 03:40:34;;;;;;;;;;;;;;;;;;;;;
2021/11/10 03:43:08;;;;;;;4.07;2.13;;;;;;;6.01;74.84;93580.13;5017244;28;20046;-91
2021/11/10 03:46:01;;;;;;;;;;;;;;;;;;;;;
2021/11/10 03:49:09;;;;;;;;;;;;;;;;;;;;;
2021/11/10 03:51:52;;;;;;;3.28;1.90;;;;;;;6.09;74.05;93576.41;5032291;28;20045;-91
2021/11/10 03:54:30;;;;;;;4.00;1.77;;;;;;;6.04;73.94;93584.91;5028296;28;20117;-91
2021/11/10 03:57:25;;;;;;;5.28;1.70;;;;;;;6.11;75.01;93574.38;5028940;28;20046;-91
2021/11/10 04:00:17;;;;;;;;;;;;;;;;;;;;;
2021/11/10 04:03:11;;;;;;;;;;;;;;;;;;;;;
2021/11/10 04:06:03;;;;;;;3.80;1.90;;;;;;;6.10;73.50;93554.56;5031566;28;20065;-90
2021/11/10 04:09:07;;;;;;;;;;;;;;;;;;;;;
2021/11/10 04:12:06;;;;;;;8.63;2.20;;;;;;;6.21;73.23;93569.34;5012990;28;20107;-91
2021/11/10 04:15:21;;;;;;;;;;;;;;;;;;;;;
2021/11/10 04:18:34;;;;;;;4.57;2.10;;;;;;;6.14;73.68;93573.88;5032259;28;20048;-91
2021/11/10 04:21:27;;;;;;;5.97;2.20;;;;;;;6.18;73.46;93595.81;5007709;28;20052;-90
2021/11/10 04:27:21;;;;;;;;;;;;;;;;;;;;;
2021/11/10 04:30:37;;;;;;;5.93;2.78;;;;;;;6.08;74.43;93588.63;5003603;28;20107;-92
2021/11/10 04:33:42;;;;;;;4.65;2.60;;;;;;;6.00;75.02;93588.97;5034301;28;20571;-92
2021/11/10 04:36:35;;;;;;;;;;;;;;;;;;;;;
2021/11/10 04:39:10;;;;;;;3.97;2.35;;;;;;;5.97;75.66;93584.25;5034664;28;20429;-91
2021/11/10 04:42:28;;;;;;;4.88;2.42;;;;;;;5.98;76.16;93585.81;5015331;28;20056;-91
2021/11/10 04:45:19;;;;;;;4.00;2.03;;;;;;;6.00;76.36;93584.56;4986401;28;20046;-92
2021/11/10 04:48:10;;;;;;;5.15;2.63;;;;;;;6.01;76.44;93586.16;5010140;28;20049;-92
2021/11/10 04:50:50;;;;;;;6.03;2.72;;;;;;;6.05;76.41;93579.44;4999618;28;20095;-90
2021/11/10 04:54:06;;;;;;;4.40;2.08;;;;;;;6.10;76.30;93588.38;4996900;28;20155;-93
2021/11/10 04:57:16;;;;;;;4.05;2.25;;;;;;;6.18;76.75;93603.63;5030841;28;20042;-90
2021/11/10 05:00:09;;;;;;;;;;;;;;;;;;;;;
2021/11/10 05:03:12;;;;;;;;;;;;;;;;;;;;;
2021/11/10 05:06:08;;;;;;;3.60;1.95;;;;;;;6.09;74.71;93582.38;5014604;28;20042;-90
2021/11/10 05:09:21;;;;;;;3.72;2.03;;;;;;;6.23;75.42;93595.91;5032164;28;20037;-90
2021/11/10 05:12:18;;;;;;;;;;;;;;;6.20;75.04;93596.38;5019329;28;20029;-91
2021/11/10 05:15:38;;;;;;;;;;;;;;;;;;;;;
2021/11/10 05:18:30;;;;;;;3.85;2.05;;;;;;;6.12;75.65;93583.72;5015220;28;20042;-90
2021/11/10 05:21:24;;;;;;;3.78;2.22;;;;;;;6.12;75.15;93583.72;5023431;28;20043;-90
2021/11/10 05:24:18;;;;;;;;;;;;;;;;;;;;;
2021/11/10 05:26:56;;;;;;;5.30;1.70;;;;;;;6.13;75.57;93582.72;5054619;28;20041;-90
2021/11/10 05:29:47;;;;;;;4.22;2.05;;;;;;;6.12;75.75;93581.91;5055155;28;20043;-90
2021/11/10 05:33:02;;;;;;;4.22;1.95;;;;;;;6.13;74.88;93588.72;5039085;28;20041;-91
2021/11/10 05:38:53;;;;;;;;;;;;;;;;;;;;;
2021/11/10 05:41:27;;;;;;;3.35;1.80;;;;;;;6.17;74.98;93592.44;5020001;28;20041;-90
2021/11/10 05:43:57;;;;;;;4.53;2.20;;;;;;;6.20;74.67;93597.16;5019880;28;20033;-92
2021/11/10 05:47:29;;;;;;;;;;;;;;;;;;;;;
2021/11/10 05:50:21;;;;;;;3.65;2.10;;;;;;;6.23;74.58;93601.09;5035209;28;20083;-92
2021/11/10 05:53:14;;;;;;;3.95;1.95;;;;;;;6.19;74.51;93597.38;5019094;28;20565;-90
2021/11/10 05:55:55;;;;;;;;;;;;;;;;;;;;;
2021/11/10 06:02:04;;;;;;;3.58;2.03;;;;;;;6.21;75.26;93601.34;5034714;28;20154;-91
2021/11/10 06:04:45;;;;;;;4.25;1.77;;;;;;;6.21;75.37;93608.34;5023233;28;20087;-91
2021/11/10 06:07:26;;;;;;;6.78;1.85;;;;;;;6.32;75.10;93633.50;5014671;28;20038;-91
2021/11/10 06:10:22;;;;;;;2.78;1.70;;;;;;;6.24;74.61;93615.69;5002273;28;20034;-91
2021/11/10 06:13:06;;;;;;;4.25;1.80;;;;;;;6.22;74.19;93613.31;5017328;28;20038;-91
2021/11/10 06:33:37;;;;;;;4.03;2.42;;;;;;;6.25;73.70;93627.66;4972509;28;20513;-91
2021/11/10 06:43:40;;;;;;;;;;;;;;;;;;;;;
2021/11/10 06:58:10;;;;;;;;;;;;;;;;;;;;;
2021/11/10 07:00:49;;;;;;;5.25;2.05;;;;;;;6.40;71.96;93666.19;4966320;28;20038;-92
2021/11/10 07:03:51;;;;;;;;;;;;;;;;;;;;;
2021/11/10 07:06:37;;;;;;;3.20;2.03;;;;;;;6.49;71.52;93677.03;5031594;28;20037;-92
2021/11/10 07:09:18;;;;;;;3.00;1.63;;;;;;;6.46;71.78;93666.06;5009873;28;20356;-92
2021/11/10 07:12:03;;;;;;;3.58;1.63;;;;;;;6.53;70.89;93654.69;4994618;28;20040;-92
2021/11/10 07:14:49;;;;;;;8.68;1.98;;;;;;;6.59;70.50;93654.56;4998647;28;20050;-91
2021/11/10 07:17:16;;;;;;;2.45;1.63;;;;;;;6.64;70.09;93662.47;5012555;28;20437;-93
2021/11/10 07:22:52;;;;;;;2.53;1.63;;;;;;;6.66;69.14;93655.25;5030462;28;20042;-92
2021/11/10 07:25:58;;;;;;;;;;;;;;;;;;;;;
2021/11/10 07:28:32;;;;;;;5.05;1.75;;;;;;;6.83;68.65;93644.84;5012195;28;20037;-91
2021/11/10 07:31:27;;;;;;;3.13;1.80;;;;;;;6.92;68.19;93658.28;5016170;28;20502;-92
2021/11/10 07:34:04;;;;;;;3.50;1.60;;;;;;;6.90;68.22;93652.50;5014532;28;20388;-92
2021/11/10 07:36:53;;;;;;;3.22;1.60;;;;;;;6.98;68.45;93643.53;5013440;28;20702;-90
2021/11/10 07:39:41;;;;;;;2.92;1.63;;;;;;;7.08;68.55;93644.47;4994139;28;20757;-92
2021/11/10 07:42:15;;;;;;;3.72;1.77;;;;;;;7.09;67.24;93645.25;4978959;28;20128;-93
2021/11/10 07:47:53;;;;;;;3.00;1.67;;;;;;;7.15;67.15;93641.72;4990972;28;20094;-92
2021/11/10 07:50:42;;;;;;;;;;;;;;;;;;;;;
2021/11/10 07:53:18;;;;;;;2.97;1.55;;;;;;;7.12;66.12;93608.34;5010148;28;20557;-92
2021/11/10 07:56:00;;;;;;;2.45;1.58;;;;;;;7.16;65.17;93600.84;5009608;28;20088;-92
2021/11/10 07:59:02;;;;;;;2.83;1.40;;;;;;;7.21;64.42;93598.34;4996022;28;20048;-93
2021/11/10 08:04:24;;;;;;;2.50;1.52;;;;;;;7.30;64.12;93596.91;4967881;28;20042;-92
2021/11/10 08:07:00;;;;;;;3.25;1.58;;;;;;;7.36;64.52;93589.94;4973797;28;20495;-92
2021/11/10 08:10:17;;;;;;;3.83;1.63;;;;;;;7.51;64.31;93592.78;5003280;28;20050;-92
2021/11/10 08:12:54;;;;;;;2.53;1.55;;;;;;;7.49;65.44;93581.78;4990286;28;20083;-93
2021/11/10 08:15:40;;;;;;;;;;;;;;;;;;;;;
2021/11/10 08:18:37;;;;;;;;;;;;;;;;;;;;;
2021/11/10 08:21:11;;;;;;;2.45;1.42;;;;;;;7.98;65.23;93584.50;5008561;28;20034;-93
2021/11/10 08:24:01;;;;;;;2.83;1.58;;;;;;;8.10;64.92;93571.34;4993831;28;20038;-92
2021/11/10 08:27:22;;;;;;;;;;;;;;;;;;;;;
2021/11/10 08:33:04;;;;;;;4.80;2.38;;;;;;;8.61;58.05;93581.56;5002237;28;20069;-92
2021/11/10 08:35:46;;;;;;;6.00;2.10;;;;;;;8.76;59.84;93581.72;4995158;28;20104;-92
2021/11/10 08:38:33;;;;;;;3.00;1.80;;;;;;;9.07;60.73;93581.94;5011439;28;20042;-93
2021/11/10 08:44:40;;;;;;;5.65;1.90;;;;;;;9.79;57.03;93578.78;4965468;28;20061;-92
2021/11/10 08:47:10;;;;;;;4.65;2.10;;;;;;;10.18;57.83;93580.25;4997678;28;20394;-89
2021/11/10 08:49:54;;;;;;;;;;;;;;;;;;;;;
2021/11/10 08:52:36;;;;;;;3.17;1.50;;;;;;;11.33;55.83;93604.56;5010466;28;20041;-93
2021/11/10 08:56:06;;;;;;;2.83;1.60;;;;;;;12.18;54.22;93594.19;5007238;28;20038;-92
2021/11/10 09:01:49;;;;;;;3.08;1.48;;;;;;;13.24;49.88;93590.38;4996463;28;20104;-92
2021/11/10 09:04:27;;;;;;;2.65;1.58;;;;;;;13.47;49.37;93591.56;4997163;28;20092;-93
2021/11/10 09:07:34;;;;;;;;;;;;;;;;;;;;;
2021/11/10 09:10:38;;;;;;;3.03;1.70;;;;;;;13.98;47.55;93592.91;5013065;28;20045;-92
2021/11/10 09:13:20;;;;;;;;;;;;;;;;;;;;;
2021/11/10 09:16:01;;;;;;;6.35;2.38;;;;;;;14.30;47.43;93587.03;5013759;28;20045;-92
2021/11/10 09:19:11;;;;;;;6.50;3.40;;;;;;;12.90;51.00;93573.56;4986895;28;20100;-93
2021/11/10 09:22:35;;;;;;;4.63;2.10;;;;;;;13.88;50.50;93581.41;5015336;28;20048;-93
2021/11/10 09:25:32;;;;;;;2.05;1.38;;;;;;;13.17;48.04;93574.97;5025082;28;20057;-92
2021/11/10 09:28:38;;;;;;;4.78;2.50;;;;;;;13.05;47.70;93570.03;5034612;28;20609;-92
2021/11/10 09:31:32;;;;;;;4.20;1.80;;;;;;;12.93;49.75;93572.22;5016962;28;20136;-93
2021/11/10 09:41:00;;;;;;;;;;;;;;;;;;;;;
2021/11/10 09:43:47;;;;;;;4.63;1.90;;;;;;;13.12;50.01;93538.16;5014248;28;20042;-92
2021/11/10 09:47:05;;;;;;;;;;;;;;;;;;;;;
2021/11/10 09:50:07;;;;;;;;;;;;;;;;;;;;;
2021/11/10 09:53:15;;;;;;;4.18;2.20;;;;;;;12.22;52.64;93540.06;5019063;28;20091;-92
2021/11/10 09:56:08;;;;;;;3.88;2.00;;;;;;;12.20;55.06;93550.03;5015232;28;20038;-93
2021/11/10 09:59:18;;;;;;;6.90;4.05;;;;;;;11.67;55.54;93552.31;5016829;28;20032;-92
2021/11/10 10:02:13;;;;;;;5.38;2.13;;;;;;;11.98;55.12;93574.03;5015912;28;20675;-90
2021/11/10 10:05:26;;;;;;;6.00;2.60;;;;;;;12.28;54.11;93560.00;4996196;28;20077;-92
2021/11/10 10:08:18;;;;;;;;;;;;;;;;;;;;;
2021/11/10 10:11:33;;;;;;;4.97;2.88;;;;;;;11.56;58.94;93583.03;5008603;28;20077;-92
2021/11/10 10:14:42;;;;;;;;;;;;;;;;;;;;;
2021/11/10 10:18:10;;;;;;;;;;;;;;;;;;;;;
2021/11/10 10:21:12;;;;;;;;;;;;;;;;;;;;;
2021/11/10 10:24:09;;;;;;;;;;;;;;;;;;;;;
2021/11/10 10:27:29;;;;;;;4.10;1.90;;;;;;;12.82;55.01;93558.38;4999778;28;20042;-92
2021/11/10 10:34:30;;;;;;;;;;;;;;;;;;;;;
2021/11/10 10:37:14;;;;;;;;;;;;;;;;;;;;;
2021/11/10 10:40:13;;;;;;;;;;;;;;;;;;;;;
2021/11/10 10:43:25;;;;;;;4.30;1.80;;;;;;;12.79;54.15;93553.69;5013290;28;20037;-92
2021/11/10 10:46:09;;;;;;;4.13;2.17;;;;;;;12.61;55.95;93570.06;4989119;28;20038;-93
2021/11/10 10:49:42;;;;;;;5.00;1.98;;;;;;;12.44;55.59;93559.91;4987599;28;20049;-92
2021/11/10 10:52:58;;;;;;;3.40;1.73;;;;;;;12.28;56.37;93564.47;4937300;28;20553;-92
2021/11/10 10:56:04;;;;;;;;;;;;;;;;;;;;;
2021/11/10 10:59:16;;;;;;;4.43;1.92;;;;;;;14.54;51.52;93545.63;5012785;28;20046;-93
2021/11/10 11:01:55;;;;;;;4.35;2.22;;;;;;;15.47;50.33;93542.38;4993982;28;20046;-93
2021/11/10 11:04:54;;;;;;;5.82;2.10;;;;;;;16.13;48.20;93539.63;5013034;28;20509;-94
2021/11/10 11:07:54;;;;;;;3.35;1.85;;;;;;;16.34;47.11;93529.41;5013005;28;20037;-94
2021/11/10 11:11:56;;;;;;;;;;;;;;;;;;;;;
2021/11/10 11:15:02;;;;;;;5.07;2.08;;;;;;;13.86;53.54;93551.97;5004631;28;20046;-92
2021/11/10 11:21:31;;;;;;;;;;;;;;;13.90;52.92;93565.34;5025127;23;20112;-79
2021/11/10 11:23:56;;;;;;;3.80;1.95;;;;;;;13.89;52.83;93559.31;4999919;28;19921;-78
2021/11/10 11:26:38;;;;;;;5.68;1.90;;;;;;;14.09;52.28;93542.47;5044290;28;20749;-80
2021/11/10 11:29:25;;;;;;;3.42;1.95;;;;;;;14.70;49.43;93535.69;5035223;28;20036;-80
2021/11/10 11:31:52;;;;;;;4.65;2.03;;;;;;;15.26;48.80;93533.25;5046882;28;20457;-77
2021/11/10 11:34:20;;;;;;;6.38;2.10;;;;;;;15.55;48.50;93515.31;5052305;28;20041;-76
2021/11/10 11:36:55;;;;;;;3.92;2.10;;;;;;;15.58;48.70;93508.66;5055662;28;20082;-77
2021/11/10 11:39:23;;;;;;;3.60;2.08;;;;;;;14.97;49.99;93499.94;5055037;28;20086;-79
2021/11/10 11:41:51;;;;;;;5.68;2.40;;;;;;;15.38;50.11;93494.00;5071823;28;20570;-76
2021/11/10 11:44:18;;;;;;;6.78;2.08;;;;;;;15.32;49.98;93492.53;5071124;28;20535;-77
2021/11/10 11:46:45;;;;;;;5.43;2.47;;;;;;;15.46;49.29;93489.91;5054468;28;20151;-81
2021/11/10 11:49:14;;;;;;;4.40;2.20;;;;;;;15.05;50.55;93486.09;5073780;28;20044;-78
2021/11/10 11:51:40;;;;;;;5.97;2.88;;;;;;;13.76;53.70;93499.47;5073199;28;20028;-78
2021/11/10 11:54:07;;;;;;;4.00;2.47;;;;;;;13.56;53.72;93504.94;5054130;28;20040;-77
2021/11/10 11:56:34;;;;;;;4.30;2.10;;;;;;;13.24;54.10;93498.38;5055931;28;20037;-77
2021/11/10 11:59:02;;;;;;;4.18;2.40;;;;;;;13.01;55.42;93508.56;5071466;28;20020;-78
2021/11/10 12:01:30;;;;;;;3.08;1.85;;;;;;;11.97;58.69;93522.59;5069016;28;20048;-77
2021/11/10 12:04:01;;;;;;;6.55;2.78;;;;;;;11.88;58.19;93527.59;5049595;28;20052;-79
2021/11/10 12:06:30;;;;;;;4.13;2.33;;;;;;;11.84;58.27;93531.81;5050600;28;20461;-79
2021/11/10 12:09:00;;;;;;;4.65;2.30;;;;;;;12.01;57.02;93525.47;5069581;28;20025;-79
2021/11/10 12:11:34;;;;;;;4.00;2.15;;;;;;;12.43;56.82;93514.50;5054211;28;20033;-79
2021/11/10 12:14:11;;;;;;;4.13;1.88;;;;;;;12.74;56.32;93511.66;5067484;28;20032;-79
2021/11/10 12:17:06;;;;;;;3.72;2.05;;;;;;;12.96;55.50;93519.13;5072861;28;20036;-79
2021/11/10 12:20:01;;;;;;;3.85;1.98;;;;;;;12.81;54.83;93527.09;5072526;28;20504;-79
2021/11/10 12:22:32;;;;;;;3.72;2.03;;;;;;;12.78;55.60;93525.03;5070898;28;20049;-79
2021/11/10 12:25:00;;;;;;;4.50;2.20;;;;;;;12.96;54.60;93513.84;5056090;28;20296;-79
2021/11/10 12:27:32;;;;;;;4.70;2.25;;;;;;;13.23;54.77;93496.81;5055065;28;20132;-79
2021/11/10 12:30:04;;;;;;;6.03;1.90;;;;;;;13.53;54.07;93501.81;5071491;28;20040;-79
2021/11/10 12:32:29;;;;;;;5.38;2.20;;;;;;;13.63;53.79;93506.16;5065968;28;20445;-79
2021/11/10 12:34:57;;;;;;;3.63;2.10;;;;;;;13.73;54.11;93506.06;5065716;28;20040;-79
2021/11/10 12:37:26;;;;;;;5.78;2.38;;;;;;;13.78;53.31;93505.22;5072423;28;20055;-79
2021/11/10 12:40:11;;;;;;;5.22;2.30;;;;;;;13.58;52.80;93503.59;5061746;28;20048;-79
2021/11/10 12:42:49;;;;;;;4.38;1.77;;;;;;;13.49;52.79;93502.66;5055992;28;20041;-79
2021/11/10 12:45:22;;;;;;;3.90;2.33;;;;;;;12.93;55.51;93498.66;5065564;28;20043;-79
2021/11/10 12:47:49;;;;;;;6.00;3.10;;;;;;;12.67;56.58;93490.94;5075508;28;20033;-79
2021/11/10 12:50:47;;;;;;;3.97;2.10;;;;;;;12.17;57.62;93498.09;5075331;28;20056;-79
2021/11/10 12:53:16;;;;;;;4.00;2.03;;;;;;;12.34;56.42;93489.06;5052907;28;20033;-77
2021/11/10 12:55:55;;;;;;;4.53;2.55;;;;;;;12.33;57.41;93487.50;5065867;28;20037;-79
2021/11/10 12:58:23;;;;;;;6.38;3.30;;;;;;;12.11;57.54;93490.53;5065738;28;20051;-80
2021/11/10 13:00:54;;;;;;;4.75;2.28;;;;;;;12.24;57.15;93485.44;5067380;28;20115;-79
2021/11/10 13:03:28;;;;;;;5.18;2.63;;;;;;;12.17;58.23;93494.69;5073002;28;20033;-79
2021/11/10 13:06:19;;;;;;;3.85;2.03;;;;;;;12.25;57.55;93481.00;5056009;28;20040;-77
2021/11/10 13:08:59;;;;;;;8.27;2.38;;;;;;;12.13;57.66;93485.78;5069932;28;20068;-78
2021/11/10 13:11:30;;;;;;;5.35;1.98;;;;;;;12.36;57.07;93481.72;5076715;28;20040;-78
2021/11/10 13:14:09;;;;;;;4.57;2.37;;;;;;;12.40;56.37;93480.13;5059385;28;20501;-79
2021/11/10 13:16:38;;;;;;;5.22;2.08;;;;;;;12.43;56.11;93490.09;5076164;28;20043;-79
2021/11/10 13:19:05;;;;;;;4.50;2.42;;;;;;;12.39;58.25;93483.81;5061615;28;20028;-78
2021/11/10 13:21:31;;;;;;;3.95;2.10;;;;;;;12.37;58.55;93476.19;5054070;28;20041;-79
2021/11/10 13:24:09;;;;;;;6.28;2.60;;;;;;;12.22;59.16;93473.66;5080646;28;20049;-79
2021/11/10 13:26:35;;;;;;;4.38;2.20;;;;;;;12.27;58.67;93477.06;5077297;28;20024;-77
2021/11/10 13:29:01;;;;;;;5.00;2.58;;;;;;;12.25;59.16;93473.91;5076974;28;20067;-77
2021/11/10 13:31:28;;;;;;;3.80;2.10;;;;;;;12.07;59.62;93477.16;5074811;28;20570;-78
2021/11/10 13:33:54;;;;;;;4.13;2.33;;;;;;;12.03;59.70;93482.16;5042393;28;20040;-78
2021/11/10 13:36:24;;;;;;;5.80;2.20;;;;;;;12.05;60.15;93468.78;5073958;28;20090;-78
2021/11/10 13:39:06;;;;;;;4.57;2.70;;;;;;;11.91;60.55;93473.84;5073454;28;20042;-77
2021/11/10 13:41:42;;;;;;;4.80;2.35;;;;;;;12.00;60.04;93461.72;5073168;28;20060;-77
2021/11/10 13:44:19;;;;;;;4.93;2.30;;;;;;;12.00;59.37;93458.28;5073903;28;20032;-77
2021/11/10 13:47:08;;;;;;;7.03;2.63;;;;;;;12.11;60.14;93449.31;5053234;28;20497;-78
2021/11/10 13:49:44;;;;;;;6.70;2.35;;;;;;;12.20;60.29;93442.41;5067145;28;20396;-78
2021/11/10 13:52:16;;;;;;;4.15;2.22;;;;;;;12.32;60.47;93436.84;5071758;28;20048;-78
2021/11/10 13:55:03;;;;;;;4.90;2.57;;;;;;;12.41;60.01;93442.31;5055237;28;20131;-78
2021/11/10 13:57:33;;;;;;;5.07;2.65;;;;;;;12.29;58.35;93440.81;5072609;28;20036;-78
2021/11/10 14:00:09;;;;;;;4.60;2.35;;;;;;;12.14;59.65;93435.66;5062955;28;20098;-78
2021/11/10 14:02:44;;;;;;;8.90;2.92;;;;;;;12.15;60.13;93425.94;5065496;28;20390;-78
2021/11/10 14:05:12;;;;;;;6.25;3.05;;;;;;;12.14;60.71;93421.75;5073030;28;20400;-78
2021/11/10 14:07:40;;;;;;;7.90;3.92;;;;;;;11.81;59.92;93424.78;5071774;28;20067;-78
2021/11/10 14:10:11;;;;;;;11.05;6.43;;;;;;;11.64;61.24;93429.56;5069745;28;20043;-77
2021/11/10 14:12:47;;;;;;;9.07;4.68;;;;;;;11.61;61.59;93432.75;5072484;28;20036;-77
2021/11/10 14:15:20;;;;;;;10.07;2.90;;;;;;;11.52;61.81;93421.25;5068729;28;20086;-78
2021/11/10 14:17:49;;;;;;;6.43;2.70;;;;;;;11.69;62.36;93420.94;5072652;28;20107;-81
2021/11/10 14:20:33;;;;;;;5.60;2.80;;;;;;;11.74;62.09;93416.41;5053660;28;20028;-77
2021/11/10 14:23:16;;;;;;;4.88;2.53;;;;;;;11.83;62.28;93408.78;5073510;28;20068;-77
2021/11/10 14:25:51;;;;;;;6.97;3.10;;;;;;;11.87;62.50;93412.44;5072699;28;20039;-76
2021/11/10 14:28:32;;;;;;;4.82;2.58;;;;;;;11.92;62.01;93414.28;5071228;28;20089;-77
2021/11/10 14:31:09;;;;;;;6.25;2.80;;;;;;;11.96;63.02;93412.69;5072321;28;20127;-77
2021/11/10 14:33:38;;;;;;;5.35;2.38;;;;;;;11.99;61.24;93412.13;5072057;28;20041;-77
2021/11/10 14:36:13;;;;;;;4.65;2.50;;;;;;;11.86;60.98;93411.63;5055140;28;20502;-77
2021/11/10 14:38:40;;;;;;;5.75;2.72;;;;;;;11.85;61.35;93404.03;5072833;28;20036;-77
2021/11/10 14:41:12;;;;;;;5.18;2.83;;;;;;;12.01;61.62;93404.75;5072723;28;20033;-77
2021/11/10 14:43:41;;;;;;;4.55;2.78;;;;;;;12.02;61.80;93403.69;5072698;28;20485;-78
2021/11/10 14:46:19;;;;;;;5.78;2.85;;;;;;;11.97;61.64;93401.13;5055110;28;20162;-77
2021/11/10 14:48:49;;;;;;;5.45;2.65;;;;;;;11.95;61.17;93406.63;5038318;28;20174;-77
2021/11/10 14:51:25;;;;;;;7.65;3.00;;;;;;;11.83;61.56;93406.16;5072242;28;20036;-77
2021/11/10 14:53:59;;;;;;;6.78;2.90;;;;;;;11.95;61.93;93400.59;5072408;28;20028;-76
2021/11/10 14:56:25;;;;;;;6.90;2.90;;;;;;;12.10;61.52;93400.50;5054448;28;20044;-77
2021/11/10 14:58:56;;;;;;;4.78;2.58;;;;;;;12.36;61.90;93398.50;5073010;28;20029;-77
2021/11/10 15:01:22;;;;;;;5.50;2.35;;;;;;;12.42;61.85;93401.84;5071403;28;20033;-77
2021/11/10 15:03:55;;;;;;;5.82;2.90;;;;;;;12.58;62.27;93408.53;5070493;28;20029;-78
2021/11/10 15:06:38;;;;;;;5.07;2.35;;;;;;;12.61;61.35;93397.50;5055032;28;20043;-79
2021/11/10 15:09:06;;;;;;;6.10;2.78;;;;;;;12.53;62.01;93394.69;5056822;28;20044;-79
2021/11/10 15:11:56;;;;;;;6.43;2.75;;;;;;;12.46;63.08;93390.53;5071962;28;20046;-78
2021/11/10 15:14:43;;;;;;;8.27;2.58;;;;;;;12.32;64.12;93392.22;5073019;28;20406;-79
2021/11/10 15:17:19;;;;;;;4.10;2.38;;;;;;;12.24;64.26;93392.78;5073478;28;20147;-77
2021/11/10 15:19:48;;;;;;;5.28;2.63;;;;;;;12.15;64.47;93389.97;5057312;28;20082;-77
2021/11/10 15:22:24;;;;;;;4.13;2.10;;;;;;;12.03;64.62;93384.28;5068998;28;20044;-78
2021/11/10 15:24:51;;;;;;;6.18;3.58;;;;;;;11.91;64.52;93383.81;5054860;28;20036;-79
2021/11/10 15:27:17;;;;;;;6.28;3.08;;;;;;;11.81;64.91;93374.94;5068813;28;20482;-78
2021/11/10 15:29:43;;;;;;;4.80;2.60;;;;;;;11.72;64.95;93371.31;5067684;28;20032;-78
2021/11/10 15:32:09;;;;;;;4.53;2.58;;;;;;;11.64;65.13;93380.56;5070987;28;20224;-80
2021/11/10 15:34:35;;;;;;;5.22;2.70;;;;;;;11.54;65.40;93370.09;5073654;28;20049;-80
2021/11/10 15:37:02;;;;;;;7.13;4.30;;;;;;;11.43;65.78;93379.84;5063339;28;20085;-77
2021/11/10 15:39:29;;;;;;;5.57;2.75;;;;;;;11.31;65.98;93371.53;5067382;28;20115;-77
2021/11/10 15:41:55;;;;;;;6.00;3.15;;;;;;;11.20;65.52;93368.16;5051122;28;20029;-76
2021/11/10 15:44:21;;;;;;;5.45;2.47;;;;;;;11.11;65.31;93371.59;5070397;28;20039;-78
2021/11/10 15:46:48;;;;;;;4.68;2.22;;;;;;;11.00;65.05;93371.63;5070628;28;20489;-78
2021/11/10 15:49:14;;;;;;;3.28;1.98;;;;;;;10.93;64.39;93372.97;5069127;28;20091;-75
2021/11/10 15:51:40;;;;;;;6.22;2.92;;;;;;;10.87;64.34;93369.56;5069324;28;20032;-77
2021/11/10 15:54:06;;;;;;;4.90;2.70;;;;;;;10.82;64.58;93369.56;5052312;28;20682;-77
2021/11/10 15:56:32;;;;;;;4.78;2.10;;;;;;;10.77;64.45;93364.34;5052038;28;20028;-77
2021/11/10 15:58:58;;;;;;;3.65;1.85;;;;;;;10.72;64.41;93370.38;5035590;28;20556;-77
2021/11/10 16:01:24;;;;;;;4.30;1.98;;;;;;;10.67;64.55;93378.22;5051527;28;20280;-77
2021/11/10 16:03:50;;;;;;;5.05;2.30;;;;;;;10.62;64.39;93380.88;5069945;28;20552;-77
2021/11/10 16:06:17;;;;;;;3.42;2.00;;;;;;;10.58;64.57;93374.56;5069427;28;20132;-77
2021/11/10 16:08:44;;;;;;;3.38;1.90;;;;;;;10.50;65.39;93372.50;5034821;28;20397;-77
2021/11/10 16:11:11;;;;;;;4.68;2.35;;;;;;;10.43;65.82;93372.00;5069631;28;20032;-79
2021/11/10 16:13:38;;;;;;;5.18;2.95;;;;;;;10.49;65.79;93376.16;5070886;28;20093;-76